createdAt,value
2018-02-12T20:07:06.439Z,34.60
2018-02-12T20:09:36.581Z,35.40
2018-02-12T20:12:03.978Z,36.20
2018-02-12T20:14:31.389Z,36.60
2018-02-12T20:16:59.861Z,37.00
2018-02-12T20:19:29.230Z,37.20
2018-02-12T20:21:58.471Z,37.20
2018-02-12T20:24:27.576Z,37.40
2018-02-12T20:26:54.988Z,37.60
2018-02-12T20:29:23.156Z,37.70
2018-02-12T20:31:53.527Z,38.00
2018-02-12T20:34:24.568Z,38.00
2018-02-12T20:36:52.101Z,38.00
2018-02-12T20:39:22.248Z,38.30
2018-02-12T20:41:51.865Z,37.90
2018-02-12T20:44:20.061Z,38.00
2018-02-12T20:46:47.995Z,37.90
2018-02-12T20:49:15.363Z,37.90
2018-02-12T20:51:44.696Z,38.10
2018-02-12T20:54:13.637Z,37.90
2018-02-12T20:56:42.564Z,37.60
2018-02-12T20:59:09.928Z,37.80
2018-02-12T21:01:40.678Z,37.90
2018-02-12T21:04:09.035Z,38.30
2018-02-12T21:06:36.518Z,38.20
2018-02-12T21:09:05.113Z,38.20
2018-02-12T21:11:34.066Z,38.50
2018-02-12T21:14:02.767Z,38.50
2018-02-12T21:16:32.676Z,38.70
2018-02-12T21:19:02.605Z,38.60
2018-02-12T21:21:31.264Z,38.10
2018-02-12T21:23:59.641Z,38.30
2018-02-12T21:26:27.419Z,38.00
2018-02-12T21:28:55.696Z,37.90
2018-02-12T21:31:23.090Z,38.20
2018-02-12T21:33:53.318Z,38.40
2018-02-12T21:36:20.769Z,38.30
2018-02-12T21:38:49.453Z,38.60
2018-02-12T21:41:16.885Z,38.60
2018-02-12T21:43:46.144Z,38.50
2018-02-12T21:46:13.532Z,38.60
2018-02-12T21:48:43.546Z,38.80
2018-02-12T21:51:14.514Z,39.00
2018-02-12T21:53:44.208Z,39.20
2018-02-12T21:56:12.494Z,39.10
2018-02-12T21:58:41.645Z,39.30
2018-02-12T22:01:13.536Z,39.00
2018-02-12T22:03:42.776Z,38.90
2018-02-12T22:06:11.943Z,38.80
2018-02-12T22:08:43.758Z,39.10
2018-02-12T22:11:11.107Z,39.00
2018-02-12T22:13:40.272Z,39.20
2018-02-12T22:16:07.671Z,39.30
2018-02-12T22:18:35.980Z,39.10
2018-02-12T22:21:06.730Z,39.10
2018-02-12T22:23:34.088Z,39.10
2018-02-12T22:26:01.499Z,39.00
2018-02-12T22:28:31.762Z,39.10
2018-02-12T22:31:02.155Z,39.50
2018-02-12T22:33:30.271Z,39.00
2018-02-12T22:35:59.396Z,39.50
2018-02-12T22:38:26.839Z,39.50
2018-02-12T22:40:55.100Z,39.50
2018-02-12T22:43:26.053Z,39.30
2018-02-12T22:45:54.197Z,39.00
2018-02-12T22:48:21.552Z,39.30
2018-02-12T22:50:50.613Z,38.80
2018-02-12T22:53:18.729Z,39.00
2018-02-12T22:55:46.131Z,38.90
2018-02-12T22:58:14.374Z,39.10
2018-02-12T23:00:41.729Z,38.80
2018-02-12T23:03:09.151Z,39.10
2018-02-12T23:05:36.490Z,39.20
2018-02-12T23:08:04.554Z,38.90
2018-02-12T23:10:32.631Z,38.90
2018-02-12T23:13:00.739Z,38.80
2018-02-12T23:15:32.794Z,38.90
2018-02-12T23:18:00.428Z,38.70
2018-02-12T23:22:56.805Z,38.50
2018-02-12T23:25:24.152Z,38.70
2018-02-12T23:27:52.252Z,38.50
2018-02-12T23:30:19.642Z,38.60
2018-02-12T23:37:44.375Z,39.20
2018-02-12T23:42:40.759Z,39.00
2018-02-12T23:45:08.852Z,38.50
2018-02-12T23:52:32.733Z,39.00
2018-02-12T23:57:28.463Z,39.10
